Dunkirk, OH (45836)

1:40 AM EST on November 27, 2014 (GMT -0500)
Ada | Change Station
CLOSE
Current Station
Personal Weather Station
Location: Ada, OH
Elevation: 912 ft
Nearby Weather Stations

Elev 912 ft 40.82 °N, 83.86 °W | Updated 5 seconds ago

Overcast
Overcast
29.2 °F
Feels Like 23 °F
N
6.0
Wind Variable Wind from NNW
Gusts 8.0 mph

Today
High -- | Low -- °F
--% Chance of Precip.
Yesterday
High -- | Low -- °F
Precip. -- in
7:35 AM 5:08 PM
Waxing Crescent, 26% visible
Pressure 30.06 in
Visibility 9.0 miles
Clouds Scattered Clouds 2100 ft
Overcast 2800 ft
Windchill 23 °F
Dew Point 27 °F
Humidity 91%
Rainfall 0.00 in
Snow Depth Not available.
UV 0 out of 12
Pollen .10 out of 12
Air Quality Not available.
Flu Activity Not available.
SPECI KFDY 270621Z AUTO 33006KT 9SM SCT021 OVC028 M01/M03 A3006 RMK AO2 T10061033

More Conditions Fewer Conditions

Pressure 30.06 in
Visibility 9.0 miles
Clouds Scattered Clouds 2100 ft
Overcast 2800 ft
Windchill 23 °F
Dew Point 27 °F
Humidity 91%
Rainfall 0.00 in
Snow Depth Not available.
UV 0 out of 12
Pollen .10 out of 12
Air Quality Not available.
Flu Activity Not available.
SPECI KFDY 270621Z AUTO 33006KT 9SM SCT021 OVC028 M01/M03 A3006 RMK AO2 T10061033

More Conditions Fewer Conditions

10-Day Weather Forecast

Almanac

Astronomy

Nov. 27, 2014 Rise Set
Actual Time
Civil Twilight
Nautical Twilight
Astronomical Twilight
Moon
Length of Visible Light
Length of Day
Tomorrow will be .
, % of the Moon is Illuminated

Today's Extremes

State Highs State Lows

Community

WunderPhotos

Upload Photos

1,773,962 photos uploaded!

WunderBlogs® & News

Nearby

Air Quality

  Air Quality AQ Index Pollutant
Not available.

Snow Depth

Station Depth Elevation

Earthquake Activity

City Distance Mag. Time & Date
Minimum magnitude displayed is 2.5.

Coastal Water Temperatures

Place Temperature

Nearby Weather Stations